Time;durP1;ratioP1;P1;durP2;ratioP2;P2;SDS_P1;SDS_P2;PMS_P1;PMS_P2;Temp;Humidity;BMP_temperature;BMP_pressure;BME280_temperature;BME280_humidity;BME280_pressure;Samples;Min_cycle;Max_cycle;Signal;HPM_P1;HPM_P2
2022/06/08 00:01:30;;;;;;;119.07;40.30;;;;;;;13.47;100.00;100930.63;5076369;28;20032;-82
2022/06/08 00:03:58;;;;;;;102.50;39.63;;;;;;;13.43;100.00;100925.88;5074985;28;20032;-82
2022/06/08 00:06:23;;;;;;;105.15;39.35;;;;;;;13.41;100.00;100919.84;5076088;28;20025;-82
2022/06/08 00:08:49;;;;;;;108.45;39.85;;;;;;;13.38;100.00;100915.66;5074994;28;20025;-82
2022/06/08 00:11:15;;;;;;;111.53;40.33;;;;;;;13.37;100.00;100921.34;5074868;28;20435;-82
2022/06/08 00:13:42;;;;;;;127.15;40.63;;;;;;;13.40;100.00;100921.69;5074290;28;20031;-82
2022/06/08 00:16:08;;;;;;;123.57;41.53;;;;;;;13.37;100.00;100907.72;5074313;28;20040;-82
2022/06/08 00:18:33;;;;;;;132.43;41.80;;;;;;;13.44;100.00;100903.84;5075609;28;20032;-83
2022/06/08 00:20:59;;;;;;;131.77;40.90;;;;;;;13.49;100.00;100912.16;5039805;28;20028;-83
2022/06/08 00:23:25;;;;;;;115.18;41.00;;;;;;;13.53;100.00;100911.69;5057732;28;20052;-82
2022/06/08 00:25:53;;;;;;;115.77;40.93;;;;;;;13.43;100.00;100893.16;5075692;28;20040;-82
2022/06/08 00:28:19;;;;;;;107.38;39.17;;;;;;;13.40;100.00;100896.34;5075333;28;20511;-82
2022/06/08 00:30:45;;;;;;;112.40;40.40;;;;;;;13.37;100.00;100894.09;5074209;28;20040;-82
2022/06/08 00:33:10;;;;;;;100.97;37.53;;;;;;;13.29;100.00;100897.97;5057929;28;20032;-83
2022/06/08 00:35:36;;;;;;;113.80;41.00;;;;;;;13.22;100.00;100895.31;5057719;28;20392;-83
2022/06/08 00:38:02;;;;;;;108.87;40.03;;;;;;;13.25;100.00;100896.75;5074668;28;20044;-83
2022/06/08 00:40:48;;;;;;;103.88;38.28;;;;;;;13.19;100.00;100894.97;5057612;28;20060;-83
2022/06/08 00:43:17;;;;;;;107.43;38.50;;;;;;;13.15;100.00;100891.84;5075646;28;20381;-82
2022/06/08 00:45:49;;;;;;;110.75;40.15;;;;;;;13.03;100.00;100878.19;5074058;28;20078;-83
2022/06/08 00:48:19;;;;;;;107.32;39.03;;;;;;;12.99;100.00;100880.56;5075022;28;20052;-83
2022/06/08 00:50:49;;;;;;;108.05;38.67;;;;;;;12.94;100.00;100879.59;5075282;28;20021;-83
2022/06/08 00:53:19;;;;;;;111.05;38.83;;;;;;;12.92;100.00;100868.09;5074254;28;20086;-82
2022/06/08 00:55:45;;;;;;;107.70;38.00;;;;;;;12.90;100.00;100876.50;5074108;28;20052;-82
2022/06/08 00:58:16;;;;;;;103.97;38.40;;;;;;;12.88;100.00;100875.88;5074149;28;20567;-83
2022/06/08 01:00:45;;;;;;;99.60;36.83;;;;;;;12.86;100.00;100880.75;5073358;28;20021;-83
2022/06/08 01:03:17;;;;;;;106.53;38.20;;;;;;;12.77;100.00;100861.16;5073976;28;20036;-83
2022/06/08 01:06:00;;;;;;;104.50;36.97;;;;;;;12.74;100.00;100868.94;5075522;28;20403;-82
2022/06/08 01:08:37;;;;;;;105.60;36.57;;;;;;;12.70;100.00;100862.31;5074850;28;20028;-83
2022/06/08 01:11:09;;;;;;;102.20;37.30;;;;;;;12.67;100.00;100855.44;5073840;28;20036;-83
2022/06/08 01:13:37;;;;;;;106.03;37.35;;;;;;;12.63;100.00;100856.94;5073770;28;20101;-83
2022/06/08 01:16:05;;;;;;;103.85;36.05;;;;;;;12.56;100.00;100848.88;5073649;28;20475;-82
2022/06/08 01:18:31;;;;;;;102.95;34.13;;;;;;;12.53;100.00;100845.78;5073878;28;20123;-83
2022/06/08 01:21:18;;;;;;;95.97;35.17;;;;;;;12.55;100.00;100847.22;5074368;28;20108;-83
2022/06/08 01:24:01;;;;;;;105.07;35.65;;;;;;;12.53;100.00;100846.59;5074306;28;20056;-83
2022/06/08 01:26:42;;;;;;;96.82;34.22;;;;;;;12.46;100.00;100838.53;5074941;28;20044;-82
2022/06/08 01:29:46;;;;;;;106.28;34.85;;;;;;;12.47;100.00;100839.34;5073531;28;20024;-82
2022/06/08 01:32:32;;;;;;;107.67;34.53;;;;;;;12.44;100.00;100834.38;5035086;28;20036;-82
2022/06/08 01:35:01;;;;;;;107.50;34.60;;;;;;;12.44;100.00;100828.91;5070489;28;20036;-82
2022/06/08 01:37:26;;;;;;;102.13;34.25;;;;;;;12.41;100.00;100821.22;5073045;28;20051;-82
2022/06/08 01:40:02;;;;;;;108.70;35.50;;;;;;;12.41;100.00;100819.31;5073006;28;20457;-82
2022/06/08 01:42:54;;;;;;;111.13;34.65;;;;;;;12.43;100.00;100811.78;5072981;28;20056;-83
2022/06/08 01:45:37;;;;;;;108.50;33.97;;;;;;;12.47;100.00;100814.84;5073533;28;20024;-82
2022/06/08 01:48:30;;;;;;;97.95;33.40;;;;;;;12.47;100.00;100820.28;5073219;28;20090;-83
2022/06/08 01:51:09;;;;;;;94.87;31.77;;;;;;;12.47;100.00;100814.84;5074483;28;20028;-82
2022/06/08 01:53:48;;;;;;;86.47;29.67;;;;;;;12.41;100.00;100792.09;5073162;28;20077;-82
2022/06/08 01:56:35;;;;;;;90.80;29.88;;;;;;;12.49;100.00;100793.72;5072844;28;20032;-82
2022/06/08 01:59:38;;;;;;;84.20;28.98;;;;;;;12.49;100.00;100793.72;5072714;28;20404;-83
2022/06/08 02:02:15;;;;;;;82.35;28.38;;;;;;;12.45;100.00;100792.50;5073890;28;20098;-82
2022/06/08 02:05:08;;;;;;;82.03;28.73;;;;;;;12.43;100.00;100794.59;5073000;28;20058;-82
2022/06/08 02:07:46;;;;;;;78.68;26.75;;;;;;;12.43;100.00;100787.28;5074557;28;20029;-82
2022/06/08 02:10:34;;;;;;;71.97;25.85;;;;;;;12.40;100.00;100779.59;5072608;28;20508;-82
2022/06/08 02:13:08;;;;;;;76.47;25.88;;;;;;;12.40;100.00;100776.00;5074184;28;20461;-82
2022/06/08 02:15:43;;;;;;;69.85;25.38;;;;;;;12.35;100.00;100768.53;5072613;28;20028;-82
2022/06/08 02:18:28;;;;;;;72.90;27.00;;;;;;;12.33;100.00;100769.81;5072543;28;20021;-82
2022/06/08 02:21:11;;;;;;;70.60;25.02;;;;;;;12.32;100.00;100765.47;5072896;28;20089;-82
2022/06/08 02:23:45;;;;;;;67.65;23.95;;;;;;;12.21;100.00;100753.44;5072853;28;20043;-82
2022/06/08 02:26:15;;;;;;;69.43;23.90;;;;;;;12.20;100.00;100747.19;5072821;28;20610;-82
2022/06/08 02:28:49;;;;;;;66.95;24.77;;;;;;;12.23;100.00;100745.91;5072458;28;20035;-82
2022/06/08 02:31:30;;;;;;;69.47;24.67;;;;;;;12.16;100.00;100734.28;5071750;28;20028;-82
2022/06/08 02:34:28;;;;;;;72.72;25.83;;;;;;;12.14;100.00;100736.41;5072531;28;20028;-82
2022/06/08 02:37:15;;;;;;;78.35;24.30;;;;;;;12.15;100.00;100732.59;5073219;28;20496;-82
2022/06/08 02:40:06;;;;;;;63.83;23.00;;;;;;;12.09;100.00;100729.75;5072204;28;20123;-82
2022/06/08 02:42:40;;;;;;;67.47;22.92;;;;;;;12.08;100.00;100729.97;5072247;28;20419;-82
2022/06/08 02:45:30;;;;;;;70.17;23.60;;;;;;;12.09;100.00;100732.47;5074921;28;20059;-83
2022/06/08 02:48:01;;;;;;;71.20;23.38;;;;;;;12.04;100.00;100720.63;5077541;28;20033;-83
2022/06/08 02:50:28;;;;;;;67.57;23.80;;;;;;;12.06;100.00;100724.78;5077543;28;20119;-82
2022/06/08 02:53:06;;;;;;;66.40;23.10;;;;;;;12.07;100.00;100728.31;5076800;28;20055;-82
2022/06/08 02:55:49;;;;;;;64.15;22.90;;;;;;;12.02;100.00;100720.84;5076201;28;20029;-82
2022/06/08 02:58:34;;;;;;;57.47;22.20;;;;;;;12.03;100.00;100718.94;5076224;28;20032;-82
2022/06/08 03:01:08;;;;;;;59.47;20.42;;;;;;;11.97;100.00;100711.69;5075898;28;20025;-82
2022/06/08 03:03:41;;;;;;;58.90;20.85;;;;;;;11.97;100.00;100711.69;5076107;28;20516;-83
2022/06/08 03:06:15;;;;;;;60.72;19.92;;;;;;;11.93;100.00;100708.63;5076161;28;20029;-82
2022/06/08 03:09:04;;;;;;;50.60;19.98;;;;;;;11.92;100.00;100706.91;5075358;28;20052;-82
2022/06/08 03:11:38;;;;;;;65.20;20.17;;;;;;;11.97;100.00;100709.81;5076734;28;20072;-82
2022/06/08 03:14:16;;;;;;;57.92;20.17;;;;;;;11.97;100.00;100709.00;5075288;28;20062;-83
2022/06/08 03:16:52;;;;;;;53.45;19.77;;;;;;;11.98;100.00;100713.38;5076636;28;20036;-82
2022/06/08 03:19:18;;;;;;;53.65;19.58;;;;;;;12.00;100.00;100713.97;5077173;28;20033;-82
2022/06/08 03:21:44;;;;;;;59.10;20.17;;;;;;;11.99;100.00;100699.53;5076759;28;20033;-82
2022/06/08 03:24:10;;;;;;;51.27;18.57;;;;;;;12.04;100.00;100712.47;5075480;28;20055;-82
2022/06/08 03:26:42;;;;;;;51.17;18.48;;;;;;;12.02;100.00;100701.81;5075381;28;20106;-83
2022/06/08 03:29:07;;;;;;;56.72;18.88;;;;;;;12.04;100.00;100704.28;5075497;28;20028;-82
2022/06/08 03:31:33;;;;;;;44.07;17.97;;;;;;;12.06;100.00;100697.59;5075624;28;20040;-82
2022/06/08 03:34:01;;;;;;;46.17;17.90;;;;;;;12.14;100.00;100712.75;5076404;28;20032;-82
2022/06/08 03:36:26;;;;;;;48.57;17.93;;;;;;;12.17;100.00;100706.84;5076342;28;20028;-82
2022/06/08 03:38:52;;;;;;;47.20;16.98;;;;;;;12.18;100.00;100707.66;5075621;28;20482;-82
2022/06/08 03:41:17;;;;;;;48.03;17.00;;;;;;;12.20;100.00;100711.00;5059152;28;20043;-82
2022/06/08 03:43:43;;;;;;;47.05;17.38;;;;;;;12.23;100.00;100711.34;5076771;28;20043;-82
2022/06/08 03:46:12;;;;;;;39.30;15.83;;;;;;;12.34;100.00;100720.66;5075922;28;20449;-82
2022/06/08 03:48:41;;;;;;;42.80;16.63;;;;;;;12.31;100.00;100707.47;5058372;28;20049;-82
2022/06/08 03:51:07;;;;;;;49.38;16.85;;;;;;;12.35;100.00;100705.97;5077021;28;20032;-82
2022/06/08 03:54:08;;;;;;;47.17;17.67;;;;;;;12.40;100.00;100710.72;5076076;28;20021;-82
2022/06/08 03:56:37;;;;;;;38.22;15.52;;;;;;;12.48;100.00;100718.56;5052947;28;20068;-82
2022/06/08 03:59:03;;;;;;;37.30;15.53;;;;;;;12.49;100.00;100716.66;5075964;28;20024;-82
2022/06/08 04:01:30;;;;;;;38.67;15.50;;;;;;;12.57;100.00;100709.00;5074576;28;20059;-82
2022/06/08 04:03:58;;;;;;;41.92;15.98;;;;;;;12.57;100.00;100694.56;5074879;28;20028;-82
2022/06/08 04:06:24;;;;;;;41.75;15.95;;;;;;;12.66;100.00;100698.63;5074754;28;20063;-82
2022/06/08 04:08:50;;;;;;;44.50;16.03;;;;;;;12.67;100.00;100696.72;5075637;28;20060;-82
2022/06/08 04:11:19;;;;;;;40.58;16.00;;;;;;;12.73;100.00;100691.19;5074534;28;20099;-82
2022/06/08 04:13:45;;;;;;;41.08;15.55;;;;;;;12.82;100.00;100700.66;5075570;28;20056;-82
2022/06/08 04:16:10;;;;;;;38.75;15.15;;;;;;;12.78;100.00;100682.31;5058112;28;20075;-82
2022/06/08 04:18:49;;;;;;;31.57;14.67;;;;;;;12.85;100.00;100690.38;5074052;28;20131;-82
2022/06/08 04:21:15;;;;;;;32.13;14.25;;;;;;;12.87;100.00;100680.06;5058957;28;20032;-82
2022/06/08 04:23:42;;;;;;;32.95;14.95;;;;;;;12.94;100.00;100678.88;5057304;28;20119;-82
2022/06/08 04:26:09;;;;;;;31.30;14.00;;;;;;;12.92;100.00;100663.88;5074209;28;20059;-82
2022/06/08 04:28:37;;;;;;;35.05;14.43;;;;;;;13.03;100.00;100676.66;5075661;28;20029;-82
2022/06/08 04:31:06;;;;;;;31.23;13.77;;;;;;;13.03;100.00;100682.09;5074489;28;20037;-82
2022/06/08 04:33:31;;;;;;;29.30;14.05;;;;;;;13.08;100.00;100687.69;5075555;28;20529;-82
2022/06/08 04:36:00;;;;;;;28.73;12.53;;;;;;;13.10;100.00;100676.53;5074079;28;20029;-82
2022/06/08 04:38:33;;;;;;;29.58;12.60;;;;;;;13.14;100.00;100673.13;5074153;28;20432;-82
2022/06/08 04:40:59;;;;;;;24.42;12.85;;;;;;;13.20;100.00;100670.50;5075697;28;20043;-82
2022/06/08 04:43:25;;;;;;;25.97;11.70;;;;;;;13.30;100.00;100678.91;5074249;28;20060;-82
2022/06/08 04:45:50;;;;;;;24.67;11.75;;;;;;;13.39;100.00;100673.94;5058199;28;20125;-82
2022/06/08 04:48:16;;;;;;;29.73;12.03;;;;;;;13.42;100.00;100657.97;5073629;28;20044;-82
2022/06/08 04:50:41;;;;;;;26.27;13.10;;;;;;;13.51;100.00;100656.53;5056821;28;20048;-82
2022/06/08 04:53:08;;;;;;;26.50;12.47;;;;;;;13.62;100.00;100663.00;5073563;28;20032;-82
2022/06/08 04:55:34;;;;;;;21.30;12.32;;;;;;;13.53;100.00;100650.00;5073774;28;20032;-82
2022/06/08 04:58:01;;;;;;;22.40;11.65;;;;;;;13.57;100.00;100649.28;5075310;28;20112;-82
2022/06/08 05:00:27;;;;;;;23.80;10.87;;;;;;;13.60;100.00;100654.25;5074674;28;20543;-82
2022/06/08 05:02:54;;;;;;;20.23;11.48;;;;;;;13.60;100.00;100650.72;5073374;28;20028;-82
2022/06/08 05:05:23;;;;;;;18.92;10.52;;;;;;;13.71;100.00;100657.19;5073206;28;20369;-82
2022/06/08 05:07:49;;;;;;;18.00;10.30;;;;;;;13.59;100.00;100647.16;5073254;28;20035;-82
2022/06/08 05:10:16;;;;;;;18.15;10.27;;;;;;;13.62;100.00;100654.00;5073415;28;20024;-82
2022/06/08 05:12:42;;;;;;;13.80;9.10;;;;;;;13.67;100.00;100645.94;5056724;28;20047;-82
2022/06/08 05:15:14;;;;;;;14.80;9.48;;;;;;;13.64;100.00;100640.97;5073162;28;20032;-82
2022/06/08 05:17:40;;;;;;;15.73;9.43;;;;;;;13.65;100.00;100637.19;5073751;28;20024;-82
2022/06/08 05:20:08;;;;;;;12.77;8.32;;;;;;;13.71;100.00;100633.47;5074128;28;20039;-86
2022/06/08 05:22:40;;;;;;;13.35;8.60;;;;;;;13.82;100.00;100632.63;5073091;28;20039;-87
2022/06/08 05:25:11;;;;;;;15.63;8.23;;;;;;;13.88;100.00;100622.66;5074003;28;20101;-84
2022/06/08 05:27:38;;;;;;;15.38;8.77;;;;;;;14.00;100.00;100628.06;5072060;28;20071;-86
2022/06/08 05:30:27;;;;;;;14.63;8.25;;;;;;;14.09;100.00;100634.78;5072680;28;20029;-89
2022/06/08 05:32:59;;;;;;;17.83;8.82;;;;;;;14.08;100.00;100618.66;5073028;28;20044;-86
2022/06/08 05:35:29;;;;;;;12.25;7.97;;;;;;;14.12;100.00;100619.81;5073041;28;20032;-87
2022/06/08 05:37:54;;;;;;;13.60;7.60;;;;;;;14.15;100.00;100609.22;5072942;28;20076;-86
2022/06/08 05:40:21;;;;;;;13.35;8.13;;;;;;;14.14;100.00;100604.88;5072449;28;20513;-87
2022/06/08 05:42:50;;;;;;;13.98;8.18;;;;;;;14.16;100.00;100599.16;5073221;28;20078;-87
2022/06/08 05:45:26;;;;;;;15.02;7.93;;;;;;;14.19;100.00;100604.94;5073227;28;20029;-88
2022/06/08 05:48:04;;;;;;;;;;;;;;;;;;;;;
2022/06/08 05:50:36;;;;;;;10.68;6.70;;;;;;;14.32;100.00;100603.81;5074589;28;20047;-89
2022/06/08 05:53:02;;;;;;;10.00;6.57;;;;;;;14.26;100.00;100593.91;5073349;28;20499;-87
2022/06/08 05:55:28;;;;;;;10.68;7.00;;;;;;;14.47;100.00;100592.31;5072605;28;20123;-87
2022/06/08 05:57:57;;;;;;;9.82;6.55;;;;;;;14.47;100.00;100586.88;5072758;28;20036;-88
2022/06/08 06:00:26;;;;;;;11.27;6.60;;;;;;;14.59;100.00;100580.50;5072524;28;20076;-87
2022/06/08 06:02:58;;;;;;;8.95;6.63;;;;;;;14.68;100.00;100573.56;5072441;28;20036;-87
2022/06/08 06:05:31;;;;;;;10.18;6.22;;;;;;;14.74;100.00;100578.03;5073229;28;20119;-88
2022/06/08 06:08:00;;;;;;;10.38;6.45;;;;;;;14.72;100.00;100578.28;5073114;28;20086;-88
2022/06/08 06:10:28;;;;;;;9.98;6.30;;;;;;;14.77;100.00;100584.91;5072763;28;20445;-87
2022/06/08 06:12:57;;;;;;;11.63;6.80;;;;;;;14.72;100.00;100588.41;5073073;28;20510;-88
2022/06/08 06:18:16;;;;;;;10.27;6.28;;;;;;;14.81;100.00;100594.25;5073097;28;20036;-87
2022/06/08 06:20:50;;;;;;;8.98;5.57;;;;;;;14.67;100.00;100596.50;5071608;28;20071;-87
2022/06/08 06:23:25;;;;;;;8.80;6.13;;;;;;;14.67;100.00;100591.03;5072604;28;20074;-87
2022/06/08 06:26:01;;;;;;;9.73;5.97;;;;;;;14.66;100.00;100594.81;5072015;28;20111;-87
2022/06/08 06:28:31;;;;;;;9.10;5.55;;;;;;;14.69;100.00;100588.88;5072507;28;20035;-87
2022/06/08 06:30:57;;;;;;;9.75;6.38;;;;;;;14.65;100.00;100599.47;5072744;28;20067;-82
2022/06/08 06:33:23;;;;;;;11.77;5.90;;;;;;;14.54;100.00;100590.28;5072213;28;20123;-82
2022/06/08 06:35:48;;;;;;;9.60;5.80;;;;;;;14.58;100.00;100604.22;5055652;28;20131;-83
2022/06/08 06:38:13;;;;;;;9.77;6.33;;;;;;;14.66;100.00;100603.03;5038314;28;20078;-82
2022/06/08 06:40:39;;;;;;;10.23;6.50;;;;;;;14.65;100.00;100590.47;5073928;28;20033;-81
2022/06/08 06:43:05;;;;;;;9.47;5.67;;;;;;;14.82;100.00;100595.91;5072011;28;20032;-82
2022/06/08 06:45:31;;;;;;;11.88;6.50;;;;;;;14.85;100.00;100584.47;5071888;28;20078;-82
2022/06/08 06:47:57;;;;;;;7.23;5.27;;;;;;;14.84;100.00;100580.09;5071637;28;20035;-81
2022/06/08 06:50:26;;;;;;;10.95;5.32;;;;;;;14.94;100.00;100588.44;5071580;28;20032;-82
2022/06/08 06:52:52;;;;;;;9.32;5.10;;;;;;;15.04;100.00;100587.75;5071669;28;20473;-81
2022/06/08 06:55:28;;;;;;;9.37;5.53;;;;;;;15.08;100.00;100583.44;5072613;28;20495;-82
2022/06/08 06:57:55;;;;;;;10.45;5.43;;;;;;;15.11;100.00;100585.69;5071616;28;20029;-81
2022/06/08 07:00:21;;;;;;;8.40;5.10;;;;;;;15.22;100.00;100575.69;5055244;28;20033;-81
2022/06/08 07:02:46;;;;;;;10.32;5.47;;;;;;;15.22;100.00;100576.53;5072060;28;20078;-81
2022/06/08 07:05:23;;;;;;;7.37;4.50;;;;;;;15.28;100.00;100574.72;5071895;28;20036;-82
2022/06/08 07:07:49;;;;;;;11.60;4.68;;;;;;;15.40;100.00;100574.59;5071960;28;20033;-82
2022/06/08 07:10:15;;;;;;;9.80;4.40;;;;;;;15.51;100.00;100578.25;5055132;28;20024;-81
2022/06/08 07:12:41;;;;;;;6.25;3.55;;;;;;;15.46;100.00;100567.25;5071825;28;20376;-81
2022/06/08 07:15:11;;;;;;;12.17;3.90;;;;;;;15.40;100.00;100574.59;5055043;28;20040;-88
2022/06/08 07:17:44;;;;;;;12.02;3.83;;;;;;;15.53;100.00;100573.34;5072001;28;20027;-86
2022/06/08 07:20:15;;;;;;;7.53;3.72;;;;;;;15.72;100.00;100568.38;5072499;28;20456;-86
2022/06/08 07:22:56;;;;;;;;;;;;;;;;;;;;;
2022/06/08 07:25:29;;;;;;;9.33;3.53;;;;;;;15.90;100.00;100568.06;5073373;28;20459;-86
2022/06/08 07:28:00;;;;;;;9.80;3.75;;;;;;;15.95;100.00;100559.09;5055331;28;20078;-85
2022/06/08 07:30:27;;;;;;;13.05;3.42;;;;;;;16.16;100.00;100559.28;5073007;28;20029;-86
2022/06/08 07:33:03;;;;;;;6.75;3.40;;;;;;;16.31;100.00;100559.41;5075260;28;20085;-86
2022/06/08 07:36:13;;;;;;;6.15;3.22;;;;;;;16.26;99.58;100553.91;5059484;28;20036;-86
2022/06/08 07:38:44;;;;;;;11.63;3.13;;;;;;;16.53;100.00;100555.75;5073003;28;20131;-86
2022/06/08 07:41:15;;;;;;;9.88;3.30;;;;;;;16.87;98.51;100550.81;5075299;28;20031;-85
2022/06/08 07:43:51;;;;;;;9.15;3.20;;;;;;;16.96;95.58;100549.25;5074801;28;20590;-86
2022/06/08 07:46:24;;;;;;;5.93;2.90;;;;;;;16.99;94.58;100556.94;5075422;28;20036;-85
2022/06/08 07:51:39;;;;;;;7.23;2.90;;;;;;;17.22;92.58;100552.09;5076521;28;20040;-85
2022/06/08 07:54:13;;;;;;;8.27;3.55;;;;;;;17.39;92.41;100548.31;5074847;28;20058;-86
2022/06/08 07:56:47;;;;;;;6.35;2.95;;;;;;;17.47;90.34;100559.59;5074733;28;20500;-86
2022/06/08 07:59:14;;;;;;;8.23;2.78;;;;;;;17.45;90.84;100556.31;5075101;28;20039;-81
2022/06/08 08:01:43;;;;;;;9.15;2.85;;;;;;;17.47;89.35;100561.53;5074698;28;20051;-83
2022/06/08 08:04:11;;;;;;;7.20;2.50;;;;;;;17.35;89.40;100554.34;5074562;28;20435;-84
2022/06/08 08:06:38;;;;;;;6.90;3.17;;;;;;;17.35;88.61;100545.31;5074332;28;20037;-84
2022/06/08 08:09:04;;;;;;;5.97;3.10;;;;;;;17.34;88.77;100549.94;5076129;28;20087;-89
2022/06/08 08:11:32;;;;;;;7.27;2.90;;;;;;;17.44;88.49;100564.81;5075077;28;20453;-84
2022/06/08 08:14:03;;;;;;;11.38;3.05;;;;;;;17.39;88.46;100557.41;5057976;28;20102;-84
2022/06/08 08:16:32;;;;;;;7.75;2.67;;;;;;;17.48;89.84;100553.03;5058127;28;20036;-85
2022/06/08 08:19:03;;;;;;;9.95;2.70;;;;;;;17.52;87.79;100551.41;5075294;28;20029;-84
2022/06/08 08:21:37;;;;;;;7.05;2.63;;;;;;;17.31;87.42;100549.66;5074456;28;20038;-84
2022/06/08 08:24:10;;;;;;;6.13;2.67;;;;;;;17.22;89.64;100546.63;5073949;28;20029;-84
2022/06/08 08:26:43;;;;;;;11.35;3.28;;;;;;;17.29;88.50;100554.59;5074686;28;20028;-84
2022/06/08 08:29:11;;;;;;;9.13;2.95;;;;;;;17.24;88.12;100554.56;5074731;28;20070;-84
2022/06/08 08:31:44;;;;;;;12.23;3.63;;;;;;;17.30;90.54;100553.50;5074176;28;20075;-84
2022/06/08 08:34:10;;;;;;;11.60;3.50;;;;;;;17.16;87.63;100548.50;5074704;28;20060;-85
2022/06/08 08:36:38;;;;;;;7.67;2.80;;;;;;;17.15;89.86;100546.84;5073961;28;20504;-84
2022/06/08 08:39:05;;;;;;;9.35;3.25;;;;;;;17.24;89.79;100549.91;5074372;28;20469;-83
2022/06/08 08:44:32;;;;;;;10.13;3.28;;;;;;;17.23;88.75;100551.00;5075634;28;20427;-84
2022/06/08 08:47:03;;;;;;;9.65;3.35;;;;;;;17.31;89.52;100558.72;5075784;28;20060;-84
2022/06/08 08:49:34;;;;;;;12.83;3.40;;;;;;;17.26;88.32;100553.22;5073314;28;20527;-83
2022/06/08 08:52:02;;;;;;;7.95;3.03;;;;;;;17.38;87.43;100560.38;5073556;28;20051;-84
2022/06/08 08:54:36;;;;;;;10.77;3.17;;;;;;;17.30;86.36;100548.84;5075110;28;20067;-84
2022/06/08 08:57:04;;;;;;;7.15;2.65;;;;;;;17.28;86.87;100558.44;5074159;28;20082;-83
2022/06/08 08:59:34;;;;;;;8.93;3.03;;;;;;;17.11;86.39;100548.50;5073597;28;20043;-84
2022/06/08 09:02:10;;;;;;;7.67;3.00;;;;;;;17.09;87.05;100549.84;5073910;28;20375;-84
2022/06/08 09:04:45;;;;;;;10.27;2.90;;;;;;;17.15;87.61;100571.50;5074007;28;20468;-84
2022/06/08 09:07:18;;;;;;;8.68;2.72;;;;;;;17.22;87.93;100554.03;5075024;28;20066;-85
2022/06/08 09:09:48;;;;;;;7.22;2.60;;;;;;;17.26;86.82;100553.22;5074418;28;20472;-83
2022/06/08 09:12:18;;;;;;;14.88;3.08;;;;;;;17.26;87.89;100553.22;5074643;28;20036;-85
2022/06/08 09:15:01;;;;;;;5.43;2.47;;;;;;;17.23;87.59;100551.00;5073313;28;20028;-83
2022/06/08 09:17:36;;;;;;;8.35;2.55;;;;;;;16.98;89.32;100563.47;5075241;28;20047;-83
2022/06/08 09:20:16;;;;;;;8.98;3.20;;;;;;;16.74;89.58;100557.56;5074603;28;20028;-83
2022/06/08 09:22:48;;;;;;;9.10;3.22;;;;;;;16.44;94.83;100563.63;5073573;28;20085;-83
2022/06/08 09:25:29;;;;;;;7.82;2.75;;;;;;;16.33;95.80;100554.50;5072967;28;20071;-83
2022/06/08 09:27:59;;;;;;;7.43;3.00;;;;;;;16.12;96.21;100558.97;5074034;28;20055;-84
2022/06/08 09:30:48;;;;;;;15.27;3.30;;;;;;;15.89;97.85;100558.19;5072909;28;20052;-84
2022/06/08 09:33:19;;;;;;;19.08;3.55;;;;;;;15.78;100.00;100557.28;5073929;28;20043;-84
2022/06/08 09:36:01;;;;;;;11.07;3.40;;;;;;;15.64;100.00;100566.94;5072771;28;20029;-84
2022/06/08 09:38:29;;;;;;;9.88;3.58;;;;;;;15.50;100.00;100562.94;5072728;28;20029;-84
2022/06/08 09:41:07;;;;;;;14.07;3.70;;;;;;;15.41;100.00;100576.22;5072715;28;20056;-84
2022/06/08 09:43:38;;;;;;;15.25;3.80;;;;;;;15.39;100.00;100571.00;5072794;28;20029;-84
2022/06/08 09:51:25;;;;;;;10.13;4.05;;;;;;;15.31;100.00;100563.25;5074064;28;20129;-84
2022/06/08 09:52:23;;;;;;;12.70;4.32;;;;;;;15.37;100.00;100573.19;5073952;28;20055;-85
2022/06/08 09:55:02;;;;;;;15.63;3.20;;;;;;;15.25;100.00;100583.38;5073473;28;20384;-85
2022/06/08 09:57:58;;;;;;;10.70;3.33;;;;;;;15.02;100.00;100584.47;5072270;28;20028;-84
2022/06/08 10:00:52;;;;;;;12.27;4.35;;;;;;;14.90;100.00;100579.09;5073850;28;20024;-85
2022/06/08 10:03:37;;;;;;;16.38;4.05;;;;;;;14.76;100.00;100577.78;5072640;28;20119;-84
2022/06/08 10:06:12;;;;;;;14.70;3.80;;;;;;;14.61;100.00;100578.34;5072354;28;20358;-84
2022/06/08 10:09:15;;;;;;;9.47;4.30;;;;;;;14.52;100.00;100573.28;5073154;28;20094;-83
2022/06/08 10:11:59;;;;;;;17.08;4.70;;;;;;;14.52;100.00;100576.03;5069712;28;20544;-85
2022/06/08 10:15:08;;;;;;;17.63;5.00;;;;;;;14.52;100.00;100583.41;5072836;28;20115;-86
2022/06/08 10:17:48;;;;;;;23.92;5.57;;;;;;;14.53;100.00;100568.69;5072034;28;20025;-88
2022/06/08 10:20:29;;;;;;;16.92;5.55;;;;;;;14.72;100.00;100577.47;5072619;28;20032;-84
2022/06/08 10:23:00;;;;;;;14.43;6.07;;;;;;;14.82;100.00;100577.63;5072768;28;20393;-83
2022/06/08 10:25:50;;;;;;;21.73;6.18;;;;;;;14.80;100.00;100571.56;5072700;28;20032;-83
2022/06/08 10:28:41;;;;;;;15.15;5.90;;;;;;;14.80;100.00;100571.56;5072012;28;20048;-83
2022/06/08 10:31:37;;;;;;;17.90;5.80;;;;;;;14.90;100.00;100582.66;5073459;28;20064;-83
2022/06/08 10:34:44;;;;;;;13.98;4.97;;;;;;;14.77;100.00;100577.53;5072246;28;20054;-82
2022/06/08 10:37:16;;;;;;;11.23;4.93;;;;;;;14.80;100.00;100570.75;5052137;28;20033;-83
2022/06/08 10:39:48;;;;;;;12.43;4.88;;;;;;;14.73;100.00;100563.56;5072412;28;20035;-83
2022/06/08 10:45:23;;;;;;;12.70;6.00;;;;;;;14.91;100.00;100562.47;5073732;28;20387;-83
2022/06/08 10:48:01;;;;;;;17.00;6.63;;;;;;;15.00;100.00;100562.84;5071526;28;20032;-82
2022/06/08 10:50:30;;;;;;;12.63;4.83;;;;;;;14.82;100.00;100563.13;5071971;28;20042;-82
2022/06/08 10:55:43;;;;;;;15.85;5.57;;;;;;;15.04;100.00;100566.75;5073445;28;20055;-82
2022/06/08 10:58:17;;;;;;;17.70;6.32;;;;;;;15.08;100.00;100565.13;5071963;28;20062;-83
2022/06/08 11:01:05;;;;;;;12.70;4.55;;;;;;;15.03;100.00;100548.69;5072152;28;20464;-83
2022/06/08 11:03:40;;;;;;;10.43;3.40;;;;;;;14.94;100.00;100561.13;5071738;28;20059;-83
2022/06/08 11:06:44;;;;;;;11.20;3.70;;;;;;;14.78;100.00;100559.22;5074178;28;20032;-82
2022/06/08 11:09:19;;;;;;;11.18;3.47;;;;;;;14.62;100.00;100552.75;5068423;28;20041;-82
2022/06/08 11:11:49;;;;;;;13.85;4.80;;;;;;;14.62;100.00;100548.09;5076837;28;20028;-83
2022/06/08 11:14:31;;;;;;;11.95;4.45;;;;;;;14.78;100.00;100545.59;5075752;28;20056;-82
2022/06/08 11:17:03;;;;;;;15.47;4.47;;;;;;;14.74;100.00;100537.06;5075997;28;20465;-82
2022/06/08 11:19:32;;;;;;;13.13;4.10;;;;;;;14.67;100.00;100531.78;5075958;28;20040;-83
2022/06/08 11:22:05;;;;;;;9.13;3.55;;;;;;;14.48;100.00;100525.75;5075326;28;20028;-83
2022/06/08 11:24:36;;;;;;;15.90;4.07;;;;;;;14.49;100.00;100523.84;5075465;28;20434;-83
2022/06/08 11:27:17;;;;;;;18.85;4.40;;;;;;;14.65;100.00;100538.59;5075775;28;20063;-83
2022/06/08 11:29:57;;;;;;;14.33;4.87;;;;;;;14.74;100.00;100529.69;5075962;28;20055;-83
2022/06/08 11:32:32;;;;;;;17.95;4.68;;;;;;;14.76;100.00;100534.91;5075392;28;20394;-83
2022/06/08 11:35:00;;;;;;;12.52;4.13;;;;;;;14.70;100.00;100525.00;5075370;28;20115;-83
2022/06/08 11:37:41;;;;;;;14.35;4.80;;;;;;;14.59;100.00;100513.06;5075736;28;20056;-83
2022/06/08 11:40:27;;;;;;;13.07;4.00;;;;;;;14.68;100.00;100519.78;5076056;28;20420;-82
2022/06/08 11:43:07;;;;;;;11.63;4.57;;;;;;;14.78;100.00;100505.47;5076835;28;20112;-82
2022/06/08 11:45:47;;;;;;;19.52;5.70;;;;;;;14.76;100.00;100513.06;5074836;28;20024;-83
2022/06/08 11:48:17;;;;;;;10.85;3.95;;;;;;;14.61;100.00;100493.72;5074698;28;20086;-83
2022/06/08 11:50:47;;;;;;;11.38;3.22;;;;;;;14.54;100.00;100499.34;5075234;28;20024;-82
2022/06/08 11:53:31;;;;;;;10.73;3.45;;;;;;;14.51;100.00;100508.88;5076560;28;20097;-84
2022/06/08 11:56:12;;;;;;;11.53;3.60;;;;;;;14.50;100.00;100512.66;5075409;28;20487;-85